sensor_id;sensor_type;location;lat;lon;timestamp;temperature;humidity
6496;DHT22;3281;47.658;9.166;2023-03-23T00:00:53;9.30;1.00
6496;DHT22;3281;47.658;9.166;2023-03-23T00:03:20;9.20;1.00
6496;DHT22;3281;47.658;9.166;2023-03-23T00:05:48;9.30;1.00
6496;DHT22;3281;47.658;9.166;2023-03-23T00:08:16;9.30;1.00
6496;DHT22;3281;47.658;9.166;2023-03-23T00:10:43;9.40;1.00
6496;DHT22;3281;47.658;9.166;2023-03-23T00:13:10;9.50;1.00
6496;DHT22;3281;47.658;9.166;2023-03-23T00:15:38;9.50;1.00
6496;DHT22;3281;47.658;9.166;2023-03-23T00:18:06;9.50;1.00
6496;DHT22;3281;47.658;9.166;2023-03-23T00:20:33;9.50;1.00
6496;DHT22;3281;47.658;9.166;2023-03-23T00:23:07;9.60;1.00
6496;DHT22;3281;47.658;9.166;2023-03-23T00:25:34;9.70;1.00
6496;DHT22;3281;47.658;9.166;2023-03-23T00:28:00;9.70;1.00
6496;DHT22;3281;47.658;9.166;2023-03-23T00:30:28;9.70;1.00
6496;DHT22;3281;47.658;9.166;2023-03-23T00:32:55;9.80;1.00
6496;DHT22;3281;47.658;9.166;2023-03-23T00:35:23;9.60;1.00
6496;DHT22;3281;47.658;9.166;2023-03-23T00:37:50;9.70;1.00
6496;DHT22;3281;47.658;9.166;2023-03-23T00:40:18;9.70;1.00
6496;DHT22;3281;47.658;9.166;2023-03-23T00:42:45;9.80;1.00
6496;DHT22;3281;47.658;9.166;2023-03-23T00:45:14;10.00;1.00
6496;DHT22;3281;47.658;9.166;2023-03-23T00:47:42;10.00;1.00
6496;DHT22;3281;47.658;9.166;2023-03-23T00:50:12;10.00;1.00
6496;DHT22;3281;47.658;9.166;2023-03-23T00:52:39;9.90;1.00
6496;DHT22;3281;47.658;9.166;2023-03-23T00:55:07;10.00;1.00
6496;DHT22;3281;47.658;9.166;2023-03-23T00:57:35;10.10;1.00
6496;DHT22;3281;47.658;9.166;2023-03-23T01:00:02;10.10;1.00
6496;DHT22;3281;47.658;9.166;2023-03-23T01:02:34;10.10;1.00
6496;DHT22;3281;47.658;9.166;2023-03-23T01:05:01;10.20;1.00
6496;DHT22;3281;47.658;9.166;2023-03-23T01:07:28;10.10;1.00
6496;DHT22;3281;47.658;9.166;2023-03-23T01:09:56;10.10;1.00
6496;DHT22;3281;47.658;9.166;2023-03-23T01:12:25;10.10;1.00
6496;DHT22;3281;47.658;9.166;2023-03-23T01:14:53;10.20;1.00
6496;DHT22;3281;47.658;9.166;2023-03-23T01:17:20;10.30;1.00
6496;DHT22;3281;47.658;9.166;2023-03-23T01:19:47;10.30;1.00
6496;DHT22;3281;47.658;9.166;2023-03-23T01:22:14;10.30;1.00
6496;DHT22;3281;47.658;9.166;2023-03-23T01:24:41;10.30;1.00
6496;DHT22;3281;47.658;9.166;2023-03-23T01:27:07;10.30;1.00
6496;DHT22;3281;47.658;9.166;2023-03-23T01:29:35;10.50;1.00
6496;DHT22;3281;47.658;9.166;2023-03-23T01:32:03;10.70;1.00
6496;DHT22;3281;47.658;9.166;2023-03-23T01:34:29;10.80;1.00
6496;DHT22;3281;47.658;9.166;2023-03-23T01:36:56;10.80;1.00
6496;DHT22;3281;47.658;9.166;2023-03-23T01:39:23;10.80;1.00
6496;DHT22;3281;47.658;9.166;2023-03-23T01:41:50;10.90;1.00
6496;DHT22;3281;47.658;9.166;2023-03-23T01:47:22;10.80;1.00
6496;DHT22;3281;47.658;9.166;2023-03-23T01:49:52;10.70;1.00
6496;DHT22;3281;47.658;9.166;2023-03-23T01:52:23;11.00;1.00
6496;DHT22;3281;47.658;9.166;2023-03-23T01:54:53;11.00;1.00
6496;DHT22;3281;47.658;9.166;2023-03-23T01:57:24;11.00;1.00
6496;DHT22;3281;47.658;9.166;2023-03-23T01:59:53;11.20;1.00
6496;DHT22;3281;47.658;9.166;2023-03-23T02:02:23;11.20;1.00
6496;DHT22;3281;47.658;9.166;2023-03-23T02:04:51;11.30;1.00
6496;DHT22;3281;47.658;9.166;2023-03-23T02:07:22;11.20;1.00
6496;DHT22;3281;47.658;9.166;2023-03-23T02:09:49;11.20;1.00
6496;DHT22;3281;47.658;9.166;2023-03-23T02:12:16;11.10;1.00
6496;DHT22;3281;47.658;9.166;2023-03-23T02:14:43;11.10;1.00
6496;DHT22;3281;47.658;9.166;2023-03-23T02:17:14;11.00;1.00
6496;DHT22;3281;47.658;9.166;2023-03-23T02:20:01;10.90;1.00
6496;DHT22;3281;47.658;9.166;2023-03-23T02:25:43;10.90;1.00
6496;DHT22;3281;47.658;9.166;2023-03-23T02:28:39;10.90;1.00
6496;DHT22;3281;47.658;9.166;2023-03-23T02:31:29;10.90;1.00
6496;DHT22;3281;47.658;9.166;2023-03-23T02:34:09;11.00;1.00
6496;DHT22;3281;47.658;9.166;2023-03-23T02:36:42;11.10;1.00
6496;DHT22;3281;47.658;9.166;2023-03-23T02:39:14;11.20;1.00
6496;DHT22;3281;47.658;9.166;2023-03-23T02:41:45;11.30;1.00
6496;DHT22;3281;47.658;9.166;2023-03-23T02:44:15;11.20;1.00
6496;DHT22;3281;47.658;9.166;2023-03-23T02:46:42;11.20;1.00
6496;DHT22;3281;47.658;9.166;2023-03-23T02:49:13;11.40;1.00
6496;DHT22;3281;47.658;9.166;2023-03-23T02:51:41;11.40;1.00
6496;DHT22;3281;47.658;9.166;2023-03-23T02:54:09;11.30;1.00
6496;DHT22;3281;47.658;9.166;2023-03-23T02:56:37;11.10;1.00
6496;DHT22;3281;47.658;9.166;2023-03-23T02:59:04;10.80;1.00
6496;DHT22;3281;47.658;9.166;2023-03-23T03:01:51;10.60;1.00
6496;DHT22;3281;47.658;9.166;2023-03-23T03:04:23;10.60;1.00
6496;DHT22;3281;47.658;9.166;2023-03-23T03:07:10;10.60;1.00
6496;DHT22;3281;47.658;9.166;2023-03-23T03:09:46;10.80;1.00
6496;DHT22;3281;47.658;9.166;2023-03-23T03:12:21;10.50;1.00
6496;DHT22;3281;47.658;9.166;2023-03-23T03:14:53;10.30;1.00
6496;DHT22;3281;47.658;9.166;2023-03-23T03:17:24;10.60;1.00
6496;DHT22;3281;47.658;9.166;2023-03-23T03:19:56;10.50;1.00
6496;DHT22;3281;47.658;9.166;2023-03-23T03:22:25;10.70;1.00
6496;DHT22;3281;47.658;9.166;2023-03-23T03:24:56;10.70;1.00
6496;DHT22;3281;47.658;9.166;2023-03-23T03:27:25;10.80;1.00
6496;DHT22;3281;47.658;9.166;2023-03-23T03:29:55;10.90;1.00
6496;DHT22;3281;47.658;9.166;2023-03-23T03:32:26;10.90;1.00
6496;DHT22;3281;47.658;9.166;2023-03-23T03:34:59;10.90;1.00
6496;DHT22;3281;47.658;9.166;2023-03-23T03:37:26;10.90;1.00
6496;DHT22;3281;47.658;9.166;2023-03-23T03:39:53;10.80;1.00
6496;DHT22;3281;47.658;9.166;2023-03-23T03:42:20;10.70;1.00
6496;DHT22;3281;47.658;9.166;2023-03-23T03:44:47;10.80;1.00
6496;DHT22;3281;47.658;9.166;2023-03-23T03:47:14;10.70;1.00
6496;DHT22;3281;47.658;9.166;2023-03-23T03:49:40;10.60;1.00
6496;DHT22;3281;47.658;9.166;2023-03-23T03:52:08;10.50;1.00
6496;DHT22;3281;47.658;9.166;2023-03-23T03:54:35;10.40;1.00
6496;DHT22;3281;47.658;9.166;2023-03-23T03:57:02;10.40;1.00
6496;DHT22;3281;47.658;9.166;2023-03-23T03:59:30;10.30;1.00
6496;DHT22;3281;47.658;9.166;2023-03-23T04:01:58;10.30;1.00
6496;DHT22;3281;47.658;9.166;2023-03-23T04:04:24;10.50;1.00
6496;DHT22;3281;47.658;9.166;2023-03-23T04:06:51;10.70;1.00
6496;DHT22;3281;47.658;9.166;2023-03-23T04:09:19;10.80;1.00
6496;DHT22;3281;47.658;9.166;2023-03-23T04:11:46;10.70;1.00
6496;DHT22;3281;47.658;9.166;2023-03-23T04:14:13;10.60;1.00
6496;DHT22;3281;47.658;9.166;2023-03-23T04:16:40;10.60;1.00
6496;DHT22;3281;47.658;9.166;2023-03-23T04:19:07;10.80;1.00
6496;DHT22;3281;47.658;9.166;2023-03-23T04:21:33;10.80;1.00
6496;DHT22;3281;47.658;9.166;2023-03-23T04:24:00;10.90;1.00
6496;DHT22;3281;47.658;9.166;2023-03-23T04:26:29;10.90;1.00
6496;DHT22;3281;47.658;9.166;2023-03-23T04:28:58;10.80;1.00
6496;DHT22;3281;47.658;9.166;2023-03-23T04:31:24;10.80;1.00
6496;DHT22;3281;47.658;9.166;2023-03-23T04:33:51;10.90;1.00
6496;DHT22;3281;47.658;9.166;2023-03-23T04:36:18;11.00;1.00
6496;DHT22;3281;47.658;9.166;2023-03-23T04:38:48;11.00;1.00
6496;DHT22;3281;47.658;9.166;2023-03-23T04:41:15;11.10;1.00
6496;DHT22;3281;47.658;9.166;2023-03-23T04:43:43;10.90;1.00
6496;DHT22;3281;47.658;9.166;2023-03-23T04:46:10;10.90;1.00
6496;DHT22;3281;47.658;9.166;2023-03-23T04:48:37;10.70;1.00
6496;DHT22;3281;47.658;9.166;2023-03-23T04:51:05;10.50;1.00
6496;DHT22;3281;47.658;9.166;2023-03-23T04:53:32;10.60;1.00
6496;DHT22;3281;47.658;9.166;2023-03-23T04:55:59;10.60;1.00
6496;DHT22;3281;47.658;9.166;2023-03-23T04:58:26;10.60;1.00
6496;DHT22;3281;47.658;9.166;2023-03-23T05:00:56;10.70;1.00
6496;DHT22;3281;47.658;9.166;2023-03-23T05:03:23;10.70;1.00
6496;DHT22;3281;47.658;9.166;2023-03-23T05:05:50;10.60;1.00
6496;DHT22;3281;47.658;9.166;2023-03-23T05:08:18;10.50;1.00
6496;DHT22;3281;47.658;9.166;2023-03-23T05:10:50;10.50;1.00
6496;DHT22;3281;47.658;9.166;2023-03-23T05:13:18;10.60;1.00
6496;DHT22;3281;47.658;9.166;2023-03-23T05:15:45;10.70;1.00
6496;DHT22;3281;47.658;9.166;2023-03-23T05:18:13;10.90;1.00
6496;DHT22;3281;47.658;9.166;2023-03-23T05:20:40;10.80;1.00
6496;DHT22;3281;47.658;9.166;2023-03-23T05:23:07;10.70;1.00
6496;DHT22;3281;47.658;9.166;2023-03-23T05:25:34;10.70;1.00
6496;DHT22;3281;47.658;9.166;2023-03-23T05:28:05;10.80;1.00
6496;DHT22;3281;47.658;9.166;2023-03-23T05:30:32;10.80;1.00
6496;DHT22;3281;47.658;9.166;2023-03-23T05:32:59;10.80;1.00
6496;DHT22;3281;47.658;9.166;2023-03-23T05:35:27;10.80;1.00
6496;DHT22;3281;47.658;9.166;2023-03-23T05:37:53;10.80;1.00
6496;DHT22;3281;47.658;9.166;2023-03-23T05:40:21;10.80;1.00
6496;DHT22;3281;47.658;9.166;2023-03-23T05:42:48;10.90;1.00
6496;DHT22;3281;47.658;9.166;2023-03-23T05:45:15;10.90;1.00
6496;DHT22;3281;47.658;9.166;2023-03-23T05:47:42;11.00;1.00
6496;DHT22;3281;47.658;9.166;2023-03-23T05:50:10;10.90;1.00
6496;DHT22;3281;47.658;9.166;2023-03-23T05:52:39;11.00;1.00
6496;DHT22;3281;47.658;9.166;2023-03-23T05:55:08;11.00;1.00
6496;DHT22;3281;47.658;9.166;2023-03-23T05:57:35;10.80;1.00
6496;DHT22;3281;47.658;9.166;2023-03-23T06:00:02;11.00;1.00
6496;DHT22;3281;47.658;9.166;2023-03-23T06:02:38;11.00;1.00
6496;DHT22;3281;47.658;9.166;2023-03-23T06:05:09;10.80;1.00
6496;DHT22;3281;47.658;9.166;2023-03-23T06:07:36;10.70;1.00
6496;DHT22;3281;47.658;9.166;2023-03-23T06:10:05;10.70;1.00
6496;DHT22;3281;47.658;9.166;2023-03-23T06:12:32;10.80;1.00
6496;DHT22;3281;47.658;9.166;2023-03-23T06:14:59;10.70;1.00
6496;DHT22;3281;47.658;9.166;2023-03-23T06:17:26;10.90;1.00
6496;DHT22;3281;47.658;9.166;2023-03-23T06:19:53;11.00;1.00
6496;DHT22;3281;47.658;9.166;2023-03-23T06:22:20;11.10;1.00
6496;DHT22;3281;47.658;9.166;2023-03-23T06:24:46;11.10;1.00
6496;DHT22;3281;47.658;9.166;2023-03-23T06:27:15;11.10;1.00
6496;DHT22;3281;47.658;9.166;2023-03-23T06:29:43;11.10;1.00
6496;DHT22;3281;47.658;9.166;2023-03-23T06:32:10;11.20;1.00
6496;DHT22;3281;47.658;9.166;2023-03-23T06:34:38;11.30;1.00
6496;DHT22;3281;47.658;9.166;2023-03-23T06:37:06;11.40;1.00
6496;DHT22;3281;47.658;9.166;2023-03-23T06:39:33;11.50;1.00
6496;DHT22;3281;47.658;9.166;2023-03-23T06:41:59;11.50;1.00
6496;DHT22;3281;47.658;9.166;2023-03-23T06:44:27;11.70;1.00
6496;DHT22;3281;47.658;9.166;2023-03-23T06:46:54;11.80;1.00
6496;DHT22;3281;47.658;9.166;2023-03-23T06:49:21;11.90;1.00
6496;DHT22;3281;47.658;9.166;2023-03-23T06:51:48;11.90;1.00
6496;DHT22;3281;47.658;9.166;2023-03-23T06:54:15;11.90;1.00
6496;DHT22;3281;47.658;9.166;2023-03-23T06:56:42;12.10;1.00
6496;DHT22;3281;47.658;9.166;2023-03-23T06:59:08;12.70;1.00
6496;DHT22;3281;47.658;9.166;2023-03-23T07:01:37;12.70;1.00
6496;DHT22;3281;47.658;9.166;2023-03-23T07:04:04;12.70;1.00
6496;DHT22;3281;47.658;9.166;2023-03-23T07:06:30;12.70;1.00
6496;DHT22;3281;47.658;9.166;2023-03-23T07:08:57;12.90;1.00
6496;DHT22;3281;47.658;9.166;2023-03-23T07:11:25;12.90;1.00
6496;DHT22;3281;47.658;9.166;2023-03-23T07:13:52;13.00;1.00
6496;DHT22;3281;47.658;9.166;2023-03-23T07:16:18;13.10;1.00
6496;DHT22;3281;47.658;9.166;2023-03-23T07:18:46;13.30;1.00
6496;DHT22;3281;47.658;9.166;2023-03-23T07:21:13;13.40;1.00
6496;DHT22;3281;47.658;9.166;2023-03-23T07:23:39;13.40;1.00
6496;DHT22;3281;47.658;9.166;2023-03-23T07:26:07;13.50;1.00
6496;DHT22;3281;47.658;9.166;2023-03-23T07:28:34;13.70;1.00
6496;DHT22;3281;47.658;9.166;2023-03-23T07:31:01;14.00;1.00
6496;DHT22;3281;47.658;9.166;2023-03-23T07:33:28;14.50;1.00
6496;DHT22;3281;47.658;9.166;2023-03-23T07:35:58;14.70;1.00
6496;DHT22;3281;47.658;9.166;2023-03-23T07:38:25;14.50;1.00
6496;DHT22;3281;47.658;9.166;2023-03-23T07:40:53;14.40;1.00
6496;DHT22;3281;47.658;9.166;2023-03-23T07:43:20;14.40;1.00
6496;DHT22;3281;47.658;9.166;2023-03-23T07:45:46;14.60;1.00
6496;DHT22;3281;47.658;9.166;2023-03-23T07:48:13;14.70;1.00
6496;DHT22;3281;47.658;9.166;2023-03-23T07:50:40;14.90;1.00
6496;DHT22;3281;47.658;9.166;2023-03-23T07:53:08;15.00;1.00
6496;DHT22;3281;47.658;9.166;2023-03-23T07:55:35;15.00;1.00
6496;DHT22;3281;47.658;9.166;2023-03-23T07:58:02;15.00;1.00
6496;DHT22;3281;47.658;9.166;2023-03-23T08:00:29;15.10;1.00
6496;DHT22;3281;47.658;9.166;2023-03-23T08:02:57;15.10;1.00
6496;DHT22;3281;47.658;9.166;2023-03-23T08:05:25;15.10;1.00
6496;DHT22;3281;47.658;9.166;2023-03-23T08:07:53;15.20;1.00
6496;DHT22;3281;47.658;9.166;2023-03-23T08:10:22;15.10;1.00
6496;DHT22;3281;47.658;9.166;2023-03-23T08:12:51;15.10;1.00
6496;DHT22;3281;47.658;9.166;2023-03-23T08:15:18;15.10;1.00
6496;DHT22;3281;47.658;9.166;2023-03-23T08:17:47;15.10;1.00
6496;DHT22;3281;47.658;9.166;2023-03-23T08:20:14;15.20;1.00
6496;DHT22;3281;47.658;9.166;2023-03-23T08:22:43;15.20;1.00
6496;DHT22;3281;47.658;9.166;2023-03-23T08:25:11;15.20;1.00
6496;DHT22;3281;47.658;9.166;2023-03-23T08:27:40;15.30;1.00
6496;DHT22;3281;47.658;9.166;2023-03-23T08:30:10;15.20;1.00
6496;DHT22;3281;47.658;9.166;2023-03-23T08:32:37;15.30;1.00
6496;DHT22;3281;47.658;9.166;2023-03-23T08:35:05;15.40;1.00
6496;DHT22;3281;47.658;9.166;2023-03-23T08:37:32;15.60;1.00
6496;DHT22;3281;47.658;9.166;2023-03-23T08:39:59;15.80;1.00
6496;DHT22;3281;47.658;9.166;2023-03-23T08:42:26;15.90;1.00
6496;DHT22;3281;47.658;9.166;2023-03-23T08:44:54;15.90;1.00
6496;DHT22;3281;47.658;9.166;2023-03-23T08:47:21;15.90;1.00
6496;DHT22;3281;47.658;9.166;2023-03-23T08:49:47;16.00;1.00
6496;DHT22;3281;47.658;9.166;2023-03-23T08:52:18;16.10;1.00
6496;DHT22;3281;47.658;9.166;2023-03-23T08:54:44;16.20;1.00
6496;DHT22;3281;47.658;9.166;2023-03-23T08:57:13;16.20;1.00
6496;DHT22;3281;47.658;9.166;2023-03-23T08:59:39;16.10;1.00
6496;DHT22;3281;47.658;9.166;2023-03-23T09:02:09;16.10;1.00
6496;DHT22;3281;47.658;9.166;2023-03-23T09:04:37;16.20;1.00
6496;DHT22;3281;47.658;9.166;2023-03-23T09:07:04;16.30;1.00
6496;DHT22;3281;47.658;9.166;2023-03-23T09:09:31;16.30;1.00
6496;DHT22;3281;47.658;9.166;2023-03-23T09:11:59;16.30;1.00
6496;DHT22;3281;47.658;9.166;2023-03-23T09:14:26;16.30;1.00
6496;DHT22;3281;47.658;9.166;2023-03-23T09:16:53;16.30;1.00
6496;DHT22;3281;47.658;9.166;2023-03-23T09:19:21;16.40;1.00
6496;DHT22;3281;47.658;9.166;2023-03-23T09:21:47;16.50;1.00
6496;DHT22;3281;47.658;9.166;2023-03-23T09:24:15;16.60;1.00
6496;DHT22;3281;47.658;9.166;2023-03-23T09:26:42;16.80;1.00
6496;DHT22;3281;47.658;9.166;2023-03-23T09:29:08;17.00;1.00
6496;DHT22;3281;47.658;9.166;2023-03-23T09:31:36;17.30;1.00
6496;DHT22;3281;47.658;9.166;2023-03-23T09:34:05;17.50;1.00
6496;DHT22;3281;47.658;9.166;2023-03-23T09:36:36;17.60;1.00
6496;DHT22;3281;47.658;9.166;2023-03-23T09:39:04;17.40;1.00
6496;DHT22;3281;47.658;9.166;2023-03-23T09:41:54;17.30;1.00
6496;DHT22;3281;47.658;9.166;2023-03-23T09:44:31;17.30;1.00
6496;DHT22;3281;47.658;9.166;2023-03-23T09:47:07;17.50;1.00
6496;DHT22;3281;47.658;9.166;2023-03-23T09:49:39;17.30;1.00
6496;DHT22;3281;47.658;9.166;2023-03-23T09:52:13;17.00;1.00
6496;DHT22;3281;47.658;9.166;2023-03-23T09:54:42;16.90;1.00
6496;DHT22;3281;47.658;9.166;2023-03-23T09:57:15;16.60;1.00
6496;DHT22;3281;47.658;9.166;2023-03-23T09:59:47;16.60;1.00
6496;DHT22;3281;47.658;9.166;2023-03-23T10:02:19;16.70;1.00
6496;DHT22;3281;47.658;9.166;2023-03-23T10:04:49;16.80;1.00
6496;DHT22;3281;47.658;9.166;2023-03-23T10:07:20;16.80;1.00
6496;DHT22;3281;47.658;9.166;2023-03-23T10:09:49;16.70;1.00
6496;DHT22;3281;47.658;9.166;2023-03-23T10:12:24;16.70;1.00
6496;DHT22;3281;47.658;9.166;2023-03-23T10:15:07;16.70;1.00
6496;DHT22;3281;47.658;9.166;2023-03-23T10:17:41;16.80;1.00
6496;DHT22;3281;47.658;9.166;2023-03-23T10:20:24;16.90;1.00
6496;DHT22;3281;47.658;9.166;2023-03-23T10:23:00;17.20;1.00
6496;DHT22;3281;47.658;9.166;2023-03-23T10:25:29;17.30;1.00
6496;DHT22;3281;47.658;9.166;2023-03-23T10:28:06;17.60;1.00
6496;DHT22;3281;47.658;9.166;2023-03-23T10:30:38;17.70;1.00
6496;DHT22;3281;47.658;9.166;2023-03-23T10:33:13;17.90;1.00
6496;DHT22;3281;47.658;9.166;2023-03-23T10:35:45;18.10;1.00
6496;DHT22;3281;47.658;9.166;2023-03-23T10:38:19;18.10;1.00
6496;DHT22;3281;47.658;9.166;2023-03-23T10:40:50;17.90;1.00
6496;DHT22;3281;47.658;9.166;2023-03-23T10:43:17;17.90;1.00
6496;DHT22;3281;47.658;9.166;2023-03-23T10:45:47;17.70;1.00
6496;DHT22;3281;47.658;9.166;2023-03-23T10:48:18;17.50;1.00
6496;DHT22;3281;47.658;9.166;2023-03-23T10:50:51;17.40;1.00
6496;DHT22;3281;47.658;9.166;2023-03-23T10:53:23;17.40;1.00
6496;DHT22;3281;47.658;9.166;2023-03-23T10:55:53;17.30;1.00
6496;DHT22;3281;47.658;9.166;2023-03-23T10:58:26;17.30;1.00
6496;DHT22;3281;47.658;9.166;2023-03-23T11:00:54;17.30;1.00
6496;DHT22;3281;47.658;9.166;2023-03-23T11:03:25;17.40;1.00
6496;DHT22;3281;47.658;9.166;2023-03-23T11:05:58;17.40;1.00
6496;DHT22;3281;47.658;9.166;2023-03-23T11:08:27;17.50;1.00
6496;DHT22;3281;47.658;9.166;2023-03-23T11:10:58;17.30;1.00
6496;DHT22;3281;47.658;9.166;2023-03-23T11:13:29;17.30;1.00
6496;DHT22;3281;47.658;9.166;2023-03-23T11:15:56;17.20;1.00
6496;DHT22;3281;47.658;9.166;2023-03-23T11:18:24;17.30;1.00
6496;DHT22;3281;47.658;9.166;2023-03-23T11:20:54;17.50;1.00
6496;DHT22;3281;47.658;9.166;2023-03-23T11:23:24;17.60;1.00
6496;DHT22;3281;47.658;9.166;2023-03-23T11:25:57;17.60;1.00
6496;DHT22;3281;47.658;9.166;2023-03-23T11:28:31;17.40;1.00
6496;DHT22;3281;47.658;9.166;2023-03-23T11:31:00;17.30;1.00
6496;DHT22;3281;47.658;9.166;2023-03-23T11:33:30;17.30;1.00
6496;DHT22;3281;47.658;9.166;2023-03-23T11:35:57;17.40;1.00
6496;DHT22;3281;47.658;9.166;2023-03-23T11:38:24;17.60;1.00
6496;DHT22;3281;47.658;9.166;2023-03-23T11:40:55;17.70;1.00
6496;DHT22;3281;47.658;9.166;2023-03-23T11:43:23;17.90;1.00
6496;DHT22;3281;47.658;9.166;2023-03-23T11:45:58;18.00;1.00
6496;DHT22;3281;47.658;9.166;2023-03-23T11:48:31;18.30;1.00
6496;DHT22;3281;47.658;9.166;2023-03-23T11:51:02;18.50;1.00
6496;DHT22;3281;47.658;9.166;2023-03-23T11:53:40;18.40;1.00
6496;DHT22;3281;47.658;9.166;2023-03-23T11:56:15;18.50;1.00
6496;DHT22;3281;47.658;9.166;2023-03-23T11:58:44;18.50;1.00
6496;DHT22;3281;47.658;9.166;2023-03-23T12:01:19;18.40;1.00
6496;DHT22;3281;47.658;9.166;2023-03-23T12:03:59;18.40;1.00
6496;DHT22;3281;47.658;9.166;2023-03-23T12:06:35;18.30;1.00
6496;DHT22;3281;47.658;9.166;2023-03-23T12:09:14;18.40;1.00
6496;DHT22;3281;47.658;9.166;2023-03-23T12:11:55;18.30;1.00
6496;DHT22;3281;47.658;9.166;2023-03-23T12:14:29;18.30;1.00
6496;DHT22;3281;47.658;9.166;2023-03-23T12:17:05;18.40;1.00
6496;DHT22;3281;47.658;9.166;2023-03-23T12:19:42;18.40;1.00
6496;DHT22;3281;47.658;9.166;2023-03-23T12:22:29;18.20;1.00
6496;DHT22;3281;47.658;9.166;2023-03-23T12:25:05;18.40;1.00
6496;DHT22;3281;47.658;9.166;2023-03-23T12:27:40;18.40;1.00
6496;DHT22;3281;47.658;9.166;2023-03-23T12:30:20;18.20;1.00
6496;DHT22;3281;47.658;9.166;2023-03-23T12:33:12;18.10;1.00
6496;DHT22;3281;47.658;9.166;2023-03-23T12:35:52;17.90;1.00
6496;DHT22;3281;47.658;9.166;2023-03-23T12:38:51;18.10;1.00
6496;DHT22;3281;47.658;9.166;2023-03-23T12:41:23;18.10;1.00
6496;DHT22;3281;47.658;9.166;2023-03-23T12:43:57;18.20;1.00
6496;DHT22;3281;47.658;9.166;2023-03-23T12:46:49;18.40;1.00
6496;DHT22;3281;47.658;9.166;2023-03-23T12:49:21;19.00;1.00
6496;DHT22;3281;47.658;9.166;2023-03-23T12:51:53;19.00;1.00
6496;DHT22;3281;47.658;9.166;2023-03-23T12:54:28;19.10;1.00
6496;DHT22;3281;47.658;9.166;2023-03-23T12:57:00;18.60;1.00
6496;DHT22;3281;47.658;9.166;2023-03-23T12:59:38;18.60;1.00
6496;DHT22;3281;47.658;9.166;2023-03-23T13:02:13;18.20;1.00
6496;DHT22;3281;47.658;9.166;2023-03-23T13:04:45;18.00;1.00
6496;DHT22;3281;47.658;9.166;2023-03-23T13:07:16;17.90;1.00
6496;DHT22;3281;47.658;9.166;2023-03-23T13:09:50;17.80;1.00
6496;DHT22;3281;47.658;9.166;2023-03-23T13:12:19;17.90;1.00
6496;DHT22;3281;47.658;9.166;2023-03-23T13:14:56;17.90;1.00
6496;DHT22;3281;47.658;9.166;2023-03-23T13:17:35;18.00;1.00
6496;DHT22;3281;47.658;9.166;2023-03-23T13:20:30;18.10;1.00
6496;DHT22;3281;47.658;9.166;2023-03-23T13:23:01;18.10;1.00
6496;DHT22;3281;47.658;9.166;2023-03-23T13:25:44;17.90;1.00
6496;DHT22;3281;47.658;9.166;2023-03-23T13:28:15;17.90;1.00
6496;DHT22;3281;47.658;9.166;2023-03-23T13:30:58;17.90;1.00
6496;DHT22;3281;47.658;9.166;2023-03-23T13:33:28;17.90;1.00
6496;DHT22;3281;47.658;9.166;2023-03-23T13:35:55;17.70;1.00
6496;DHT22;3281;47.658;9.166;2023-03-23T13:38:24;17.60;1.00
6496;DHT22;3281;47.658;9.166;2023-03-23T13:40:54;17.50;1.00
6496;DHT22;3281;47.658;9.166;2023-03-23T13:43:29;17.40;1.00
6496;DHT22;3281;47.658;9.166;2023-03-23T13:46:09;17.20;1.00
6496;DHT22;3281;47.658;9.166;2023-03-23T13:48:44;16.80;1.00
6496;DHT22;3281;47.658;9.166;2023-03-23T13:51:27;16.90;1.00
6496;DHT22;3281;47.658;9.166;2023-03-23T13:54:23;16.90;1.00
6496;DHT22;3281;47.658;9.166;2023-03-23T13:56:54;16.80;1.00
6496;DHT22;3281;47.658;9.166;2023-03-23T13:59:33;16.80;1.00
6496;DHT22;3281;47.658;9.166;2023-03-23T14:02:36;16.70;1.00
6496;DHT22;3281;47.658;9.166;2023-03-23T14:05:30;16.60;1.00
6496;DHT22;3281;47.658;9.166;2023-03-23T14:07:58;16.40;1.00
6496;DHT22;3281;47.658;9.166;2023-03-23T14:10:32;16.30;1.00
6496;DHT22;3281;47.658;9.166;2023-03-23T14:13:01;16.20;1.00
6496;DHT22;3281;47.658;9.166;2023-03-23T14:15:29;16.20;1.00
6496;DHT22;3281;47.658;9.166;2023-03-23T14:18:01;16.00;1.00
6496;DHT22;3281;47.658;9.166;2023-03-23T14:20:32;16.00;1.00
6496;DHT22;3281;47.658;9.166;2023-03-23T14:22:59;16.10;1.00
6496;DHT22;3281;47.658;9.166;2023-03-23T14:25:28;16.20;1.00
6496;DHT22;3281;47.658;9.166;2023-03-23T14:27:55;16.30;1.00
6496;DHT22;3281;47.658;9.166;2023-03-23T14:30:24;16.30;1.00
6496;DHT22;3281;47.658;9.166;2023-03-23T14:32:51;16.30;1.00
6496;DHT22;3281;47.658;9.166;2023-03-23T14:35:26;16.30;1.00
6496;DHT22;3281;47.658;9.166;2023-03-23T14:37:53;16.40;1.00
6496;DHT22;3281;47.658;9.166;2023-03-23T14:40:20;16.30;1.00
6496;DHT22;3281;47.658;9.166;2023-03-23T14:42:47;16.40;1.00
6496;DHT22;3281;47.658;9.166;2023-03-23T14:45:18;16.30;1.00
6496;DHT22;3281;47.658;9.166;2023-03-23T14:47:51;16.40;1.00
6496;DHT22;3281;47.658;9.166;2023-03-23T14:50:25;16.30;1.00
6496;DHT22;3281;47.658;9.166;2023-03-23T14:52:57;16.40;1.00
6496;DHT22;3281;47.658;9.166;2023-03-23T14:55:24;16.40;1.00
6496;DHT22;3281;47.658;9.166;2023-03-23T14:57:54;16.50;1.00
6496;DHT22;3281;47.658;9.166;2023-03-23T15:00:22;16.50;1.00
6496;DHT22;3281;47.658;9.166;2023-03-23T15:02:52;16.50;1.00
6496;DHT22;3281;47.658;9.166;2023-03-23T15:05:26;16.60;1.00
6496;DHT22;3281;47.658;9.166;2023-03-23T15:08:00;16.60;1.00
6496;DHT22;3281;47.658;9.166;2023-03-23T15:10:28;16.70;1.00
6496;DHT22;3281;47.658;9.166;2023-03-23T15:12:55;16.70;1.00
6496;DHT22;3281;47.658;9.166;2023-03-23T15:15:26;16.80;1.00
6496;DHT22;3281;47.658;9.166;2023-03-23T15:17:54;16.80;1.00
6496;DHT22;3281;47.658;9.166;2023-03-23T15:20:24;16.80;1.00
6496;DHT22;3281;47.658;9.166;2023-03-23T15:22:51;16.80;1.00
6496;DHT22;3281;47.658;9.166;2023-03-23T15:25:20;16.80;1.00
6496;DHT22;3281;47.658;9.166;2023-03-23T15:27:52;16.80;1.00
6496;DHT22;3281;47.658;9.166;2023-03-23T15:30:31;16.80;1.00
6496;DHT22;3281;47.658;9.166;2023-03-23T15:33:04;16.80;1.00
6496;DHT22;3281;47.658;9.166;2023-03-23T15:35:36;16.90;1.00
6496;DHT22;3281;47.658;9.166;2023-03-23T15:38:04;16.90;1.00
6496;DHT22;3281;47.658;9.166;2023-03-23T15:40:34;16.90;1.00
6496;DHT22;3281;47.658;9.166;2023-03-23T15:43:06;16.90;1.00
6496;DHT22;3281;47.658;9.166;2023-03-23T15:45:33;17.00;1.00
6496;DHT22;3281;47.658;9.166;2023-03-23T15:48:10;16.90;1.00
6496;DHT22;3281;47.658;9.166;2023-03-23T15:50:40;16.90;1.00
6496;DHT22;3281;47.658;9.166;2023-03-23T15:53:21;16.90;1.00
6496;DHT22;3281;47.658;9.166;2023-03-23T15:55:49;17.00;1.00
6496;DHT22;3281;47.658;9.166;2023-03-23T15:58:15;17.00;1.00
6496;DHT22;3281;47.658;9.166;2023-03-23T16:00:42;17.00;1.00
6496;DHT22;3281;47.658;9.166;2023-03-23T16:03:14;17.00;1.00
6496;DHT22;3281;47.658;9.166;2023-03-23T16:05:44;16.90;1.00
6496;DHT22;3281;47.658;9.166;2023-03-23T16:08:11;16.80;1.00
6496;DHT22;3281;47.658;9.166;2023-03-23T16:10:39;16.80;1.00
6496;DHT22;3281;47.658;9.166;2023-03-23T16:13:05;16.90;1.00
6496;DHT22;3281;47.658;9.166;2023-03-23T16:15:32;16.80;1.00
6496;DHT22;3281;47.658;9.166;2023-03-23T16:17:59;16.80;1.00
6496;DHT22;3281;47.658;9.166;2023-03-23T16:20:28;16.80;1.00
6496;DHT22;3281;47.658;9.166;2023-03-23T16:22:58;16.80;1.00
6496;DHT22;3281;47.658;9.166;2023-03-23T16:25:25;16.70;1.00
6496;DHT22;3281;47.658;9.166;2023-03-23T16:27:52;16.80;1.00
6496;DHT22;3281;47.658;9.166;2023-03-23T16:30:21;16.70;1.00
6496;DHT22;3281;47.658;9.166;2023-03-23T16:32:48;16.60;1.00
6496;DHT22;3281;47.658;9.166;2023-03-23T16:35:15;16.60;1.00
6496;DHT22;3281;47.658;9.166;2023-03-23T16:37:46;16.60;1.00
6496;DHT22;3281;47.658;9.166;2023-03-23T16:40:15;16.60;1.00
6496;DHT22;3281;47.658;9.166;2023-03-23T16:42:42;16.50;1.00
6496;DHT22;3281;47.658;9.166;2023-03-23T16:45:09;16.60;1.00